Time;durP1;ratioP1;P1;durP2;ratioP2;P2;SDS_P1;SDS_P2;PMS_P1;PMS_P2;Temp;Humidity;BMP_temperature;BMP_pressure;BME280_temperature;BME280_humidity;BME280_pressure;Samples;Min_cycle;Max_cycle;Signal;HPM_P1;HPM_P2
2021/07/07 00:04:32;;;;;;;5.00;2.22;;;;;;;17.68;57.45;100972.41;10374577;28;20034;-70
2021/07/07 00:09:32;;;;;;;6.93;2.30;;;;;;;16.52;57.75;100828.13;10375919;28;20056;-69
2021/07/07 00:14:33;;;;;;;6.32;2.60;;;;;;;18.00;57.75;101046.78;10374233;28;20042;-69
2021/07/07 00:19:33;;;;;;;6.38;2.42;;;;;;;17.99;58.00;101056.03;10374994;28;20151;-69
2021/07/07 00:24:33;;;;;;;8.85;2.72;;;;;;;17.95;58.38;101068.56;10373723;28;20038;-69
2021/07/07 00:29:34;;;;;;;3.60;2.58;;;;;;;17.87;57.95;101050.63;10375032;28;20108;-70
2021/07/07 00:34:34;;;;;;;2.33;1.65;;;;;;;18.04;58.08;101060.81;10376518;28;20041;-70
2021/07/07 00:39:35;;;;;;;2.75;2.55;;;;;;;17.99;58.40;101063.44;10375153;28;20073;-70
2021/07/07 00:44:35;;;;;;;16.23;2.28;;;;;;;18.08;57.64;101073.78;10373129;28;20554;-70
2021/07/07 00:49:36;;;;;;;8.88;2.95;;;;;;;17.93;58.48;101067.16;10372937;28;20127;-69
2021/07/07 00:54:36;;;;;;;20.55;4.15;;;;;;;17.89;58.95;101066.81;10372273;28;20088;-70
2021/07/07 00:59:37;;;;;;;3.00;2.70;;;;;;;18.07;58.59;101052.09;10373222;28;20064;-69
2021/07/07 01:04:37;;;;;;;3.65;2.33;;;;;;;18.33;57.54;101059.75;10374865;28;20469;-69
2021/07/07 01:09:38;;;;;;;14.48;3.05;;;;;;;17.47;57.53;100908.16;10372920;28;20069;-69
2021/07/07 01:14:38;;;;;;;5.10;2.00;;;;;;;18.32;58.55;101054.53;10373846;28;20065;-69
2021/07/07 01:19:38;;;;;;;3.60;2.80;;;;;;;18.41;58.14;101066.75;10373562;28;20076;-69
2021/07/07 01:24:39;;;;;;;6.88;2.90;;;;;;;18.33;58.02;101051.50;10375677;28;20030;-69
2021/07/07 01:29:39;;;;;;;8.77;2.55;;;;;;;18.49;57.79;101038.91;10356910;28;20072;-70
2021/07/07 01:34:40;;;;;;;3.65;2.28;;;;;;;18.42;57.71;101026.47;10372272;28;20041;-69
2021/07/07 01:39:41;;;;;;;6.95;2.63;;;;;;;17.81;58.32;100922.84;10378358;28;20493;-69
2021/07/07 01:44:41;;;;;;;5.30;2.28;;;;;;;18.32;57.68;100986.81;10380821;28;20470;-69
2021/07/07 01:49:42;;;;;;;8.77;2.25;;;;;;;18.67;57.52;101034.31;10381077;28;20041;-69
2021/07/07 01:54:42;;;;;;;3.00;2.67;;;;;;;18.34;58.95;101052.34;10379725;28;20528;-69
2021/07/07 01:59:42;;;;;;;12.35;3.42;;;;;;;18.54;58.44;101044.50;10380400;28;20042;-69
2021/07/07 02:04:43;;;;;;;7.47;2.90;;;;;;;18.83;57.71;101047.22;10380315;28;20034;-70
2021/07/07 02:09:43;;;;;;;3.40;2.00;;;;;;;18.74;57.37;101018.53;10379170;28;20494;-69
2021/07/07 02:14:44;;;;;;;2.50;2.30;;;;;;;18.78;57.62;101022.44;10378573;28;20076;-69
2021/07/07 02:19:44;;;;;;;11.02;3.08;;;;;;;18.99;57.78;101054.63;10378489;28;20116;-69
2021/07/07 02:24:45;;;;;;;2.40;1.88;;;;;;;19.15;58.04;101054.88;10377625;28;20030;-70
2021/07/07 02:29:45;;;;;;;2.78;2.40;;;;;;;19.01;58.90;101057.13;10362015;28;20494;-69
2021/07/07 02:34:45;;;;;;;5.90;2.63;;;;;;;18.74;59.88;101051.47;10379129;28;20038;-70
2021/07/07 02:39:46;;;;;;;2.92;2.25;;;;;;;18.20;60.23;101037.28;10378190;28;20517;-69
2021/07/07 02:44:46;;;;;;;1.83;1.73;;;;;;;18.40;59.20;101039.56;10377886;28;20501;-70
2021/07/07 02:49:47;;;;;;;17.42;2.90;;;;;;;18.03;61.22;101062.72;10344806;28;20041;-70
2021/07/07 02:54:48;;;;;;;1.73;1.60;;;;;;;18.34;60.04;101064.13;10377718;28;20045;-70
2021/07/07 02:59:49;;;;;;;2.70;2.50;;;;;;;18.18;60.60;101069.56;10381977;28;20080;-70
2021/07/07 03:04:49;;;;;;;8.38;2.45;;;;;;;18.06;60.65;101077.84;10379673;28;20489;-69
2021/07/07 03:09:50;;;;;;;7.60;2.08;;;;;;;18.17;60.97;101068.75;10379590;28;20462;-70
2021/07/07 03:14:50;;;;;;;4.97;2.85;;;;;;;17.80;62.57;101071.00;10377108;28;20072;-70
2021/07/07 03:19:51;;;;;;;7.57;2.60;;;;;;;17.13;61.41;100915.38;10377376;28;20462;-70
2021/07/07 03:24:51;;;;;;;3.15;2.28;;;;;;;18.10;60.90;101065.31;10376377;28;20105;-70
2021/07/07 03:29:51;;;;;;;6.15;3.15;;;;;;;17.88;61.56;101052.28;10375963;28;20163;-69
2021/07/07 03:34:52;;;;;;;12.02;2.47;;;;;;;17.96;61.95;101080.38;10376723;28;20061;-69
2021/07/07 03:39:52;;;;;;;5.53;3.05;;;;;;;17.59;61.94;101017.66;10376575;28;20112;-69
2021/07/07 03:44:53;;;;;;;6.97;2.03;;;;;;;18.03;61.96;101092.88;10343189;28;20038;-69
2021/07/07 03:49:53;;;;;;;7.00;2.70;;;;;;;18.01;62.03;101094.19;10376188;28;20038;-69
2021/07/07 03:54:53;;;;;;;17.02;3.03;;;;;;;17.83;61.86;101048.59;10375385;28;20180;-69
2021/07/07 03:59:54;;;;;;;3.47;2.28;;;;;;;18.22;61.10;101099.00;10373600;28;20454;-69
2021/07/07 04:04:54;;;;;;;7.68;3.13;;;;;;;18.20;62.42;101089.38;10374519;28;20096;-68
2021/07/07 04:09:55;;;;;;;10.60;3.00;;;;;;;18.18;62.01;101099.72;10375607;28;20038;-70
2021/07/07 04:14:55;;;;;;;7.10;2.95;;;;;;;18.28;61.06;101086.22;10374277;28;20042;-69
2021/07/07 04:19:55;;;;;;;7.38;2.38;;;;;;;18.51;61.07;101104.50;10374010;28;20397;-69
2021/07/07 04:24:56;;;;;;;3.08;2.25;;;;;;;18.81;60.59;101107.00;10373052;28;20113;-69
2021/07/07 04:29:56;;;;;;;3.28;2.13;;;;;;;17.44;60.73;100909.47;10374651;28;20474;-69
2021/07/07 04:34:57;;;;;;;3.13;2.85;;;;;;;18.84;60.77;101108.41;10376358;28;20041;-68
2021/07/07 04:39:57;;;;;;;10.32;2.65;;;;;;;19.01;60.93;101120.25;10377161;28;20478;-70
2021/07/07 04:44:57;;;;;;;5.25;2.47;;;;;;;18.71;60.81;101028.06;10374338;28;20038;-70
2021/07/07 04:49:58;;;;;;;3.10;2.55;;;;;;;19.35;59.85;101117.50;10374393;28;20069;-69
2021/07/07 04:54:58;;;;;;;2.55;2.10;;;;;;;19.55;59.62;101108.75;10373288;28;20036;-69
2021/07/07 04:59:59;;;;;;;3.33;3.03;;;;;;;19.54;59.23;101121.66;10373927;28;20036;-70
2021/07/07 05:04:59;;;;;;;3.10;2.70;;;;;;;19.16;59.65;101092.22;10374002;28;20124;-69
2021/07/07 05:10:01;;;;;;;3.25;2.63;;;;;;;19.30;60.12;101142.97;10373180;28;20049;-69
2021/07/07 05:15:02;;;;;;;7.82;2.35;;;;;;;19.35;59.81;101150.47;10380726;28;20037;-69
2021/07/07 05:20:03;;;;;;;9.40;3.90;;;;;;;19.03;60.59;101123.56;10380521;28;20026;-69
2021/07/07 05:25:05;;;;;;;3.35;3.03;;;;;;;20.84;58.42;101113.69;10363133;28;20070;-70
2021/07/07 05:30:06;;;;;;;4.32;3.00;;;;;;;22.86;54.46;101148.50;10380055;28;20046;-69
2021/07/07 05:35:07;;;;;;;2.50;2.30;;;;;;;21.53;51.46;100877.81;10364241;28;20030;-69
2021/07/07 05:40:08;;;;;;;18.42;3.70;;;;;;;23.68;50.35;101152.13;10380050;28;20054;-69
2021/07/07 05:45:09;;;;;;;6.78;2.28;;;;;;;24.21;50.31;101140.63;10379710;28;20033;-70
2021/07/07 05:50:09;;;;;;;2.70;2.50;;;;;;;24.34;49.50;101134.47;10379422;28;20399;-69
2021/07/07 05:55:10;;;;;;;2.88;2.55;;;;;;;24.86;47.29;101144.19;10377920;28;20468;-69
2021/07/07 06:00:16;;;;;;;9.55;2.88;;;;;;;24.99;47.71;101156.56;10362330;28;20358;-70
2021/07/07 06:05:16;;;;;;;4.25;2.35;;;;;;;24.65;46.67;101074.25;10378835;28;20034;-69
2021/07/07 06:10:18;;;;;;;3.50;2.00;;;;;;;25.43;46.58;101164.00;10385102;28;20042;-69
2021/07/07 06:15:19;;;;;;;10.23;3.10;;;;;;;25.53;46.12;101133.41;10380401;28;20030;-69
2021/07/07 06:20:19;;;;;;;3.22;2.92;;;;;;;26.06;45.54;101100.09;10361526;28;20072;-66
2021/07/07 06:25:20;;;;;;;7.90;2.85;;;;;;;26.56;44.68;101161.69;10382704;28;20038;-70
2021/07/07 06:30:24;;;;;;;3.20;2.90;;;;;;;26.36;43.73;101075.84;10378642;28;20076;-70
2021/07/07 06:35:25;;;;;;;4.93;2.80;;;;;;;27.34;43.84;101201.09;10377567;28;20038;-68
2021/07/07 06:40:25;;;;;;;4.78;2.33;;;;;;;26.64;44.09;101177.69;10360370;28;20489;-69
2021/07/07 06:45:27;;;;;;;10.30;2.75;;;;;;;25.48;45.68;101186.13;10377140;28;20057;-69
2021/07/07 06:50:27;;;;;;;6.95;2.80;;;;;;;24.45;48.26;101179.59;10376907;28;20484;-69
2021/07/07 06:55:27;;;;;;;9.85;2.90;;;;;;;23.86;49.35;101195.78;10375798;28;20038;-72
2021/07/07 07:00:28;;;;;;;2.80;2.45;;;;;;;24.81;48.16;101224.53;10359952;28;20496;-66
2021/07/07 07:05:28;;;;;;;7.53;3.03;;;;;;;24.38;48.68;101226.94;10375861;28;20451;-70
2021/07/07 07:10:29;;;;;;;4.18;2.33;;;;;;;23.55;49.82;101238.38;10376965;28;20493;-69
2021/07/07 07:15:29;;;;;;;11.05;4.70;;;;;;;23.15;50.59;101243.56;10360064;28;20037;-72
2021/07/07 07:20:30;;;;;;;2.50;2.30;;;;;;;23.46;50.07;101242.81;10376501;28;20068;-67
2021/07/07 07:25:30;;;;;;;4.60;2.58;;;;;;;23.27;50.99;101248.03;10342849;28;20034;-70
2021/07/07 07:30:31;;;;;;;3.80;3.58;;;;;;;22.56;51.73;101165.78;10359972;28;20026;-68
2021/07/07 07:35:31;;;;;;;2.70;2.60;;;;;;;23.17;50.77;101229.50;10375335;28;20033;-69
2021/07/07 07:40:35;;;;;;;3.72;3.42;;;;;;;24.38;48.71;101260.16;10342934;28;20080;-69
2021/07/07 07:45:39;;;;;;;3.53;3.25;;;;;;;24.88;48.31;101240.84;10359453;28;20084;-68
2021/07/07 07:50:39;;;;;;;4.03;3.72;;;;;;;25.80;45.83;101267.97;10358392;28;20030;-67
2021/07/07 07:55:40;;;;;;;5.88;3.88;;;;;;;25.65;45.62;101230.06;10357161;28;20064;-68
2021/07/07 08:00:41;;;;;;;4.40;3.97;;;;;;;25.04;46.98;101257.09;10373602;28;20109;-67
2021/07/07 08:05:42;;;;;;;3.10;2.83;;;;;;;25.26;47.19;101278.88;10357610;28;20074;-66
2021/07/07 08:10:43;;;;;;;10.10;3.17;;;;;;;26.24;43.67;101097.66;10375586;28;20030;-68
2021/07/07 08:15:43;;;;;;;5.13;3.20;;;;;;;26.34;44.12;101287.16;10374987;28;20493;-68
2021/07/07 08:20:43;;;;;;;4.78;2.45;;;;;;;25.88;45.54;101292.34;10374655;28;20394;-68
2021/07/07 08:25:44;;;;;;;2.20;2.00;;;;;;;24.80;46.44;101279.13;10373435;28;20129;-68
2021/07/07 08:30:45;;;;;;;3.03;2.30;;;;;;;24.11;48.12;101277.06;10375092;28;20045;-68
2021/07/07 08:35:48;;;;;;;22.20;4.32;;;;;;;23.10;49.69;101286.94;10373914;28;20133;-68
2021/07/07 08:40:51;;;;;;;4.15;3.45;;;;;;;24.64;49.27;101301.63;10356789;28;20054;-68
2021/07/07 08:45:53;;;;;;;3.28;2.65;;;;;;;25.26;48.53;101306.59;10371976;28;20117;-67
2021/07/07 08:50:59;;;;;;;3.42;2.83;;;;;;;25.34;45.26;101307.16;10372406;28;20045;-69
2021/07/07 08:55:59;;;;;;;3.42;2.90;;;;;;;25.10;45.64;101315.28;10361983;28;20076;-67
2021/07/07 09:01:00;;;;;;;2.67;2.45;;;;;;;25.33;45.72;101319.31;10344656;28;20137;-67
2021/07/07 09:06:05;;;;;;;1.70;1.60;;;;;;;25.36;45.89;101330.66;10414083;28;20136;-68
2021/07/07 09:11:23;;;;;;;1.80;1.42;;;;;;;25.97;45.93;101332.19;10396663;28;20040;-68
2021/07/07 09:16:23;;;;;;;1.90;1.80;;;;;;;25.60;44.73;101275.34;10415210;28;20068;-67
2021/07/07 09:21:33;;;;;;;9.68;2.83;;;;;;;25.66;44.52;101298.31;10413697;28;20065;-69
2021/07/07 09:26:34;;;;;;;5.07;2.03;;;;;;;25.19;45.10;101350.44;10379647;28;20469;-68
2021/07/07 09:31:37;;;;;;;2.80;2.60;;;;;;;24.23;47.19;101352.34;10411983;28;20037;-68
2021/07/07 09:36:41;;;;;;;5.82;2.33;;;;;;;23.67;47.98;101372.50;10413587;28;20034;-68
2021/07/07 09:41:42;;;;;;;1.52;1.52;;;;;;;23.46;47.87;101362.47;10395213;28;20136;-69
2021/07/07 09:46:43;;;;;;;2.03;1.88;;;;;;;23.93;47.52;101374.47;10412328;28;20046;-68
2021/07/07 09:51:49;;;;;;;7.75;1.65;;;;;;;22.96;47.72;101206.53;10414543;28;20882;-68
2021/07/07 09:56:50;;;;;;;2.92;2.38;;;;;;;23.80;47.73;101390.50;10447939;28;20067;-70
2021/07/07 10:01:50;;;;;;;1.98;1.85;;;;;;;23.71;47.46;101394.91;10485522;28;20036;-68
2021/07/07 10:06:53;;;;;;;2.70;2.53;;;;;;;24.46;46.58;101402.72;10501689;28;20103;-69
2021/07/07 10:11:54;;;;;;;2.78;2.55;;;;;;;25.36;46.30;101399.16;10501045;28;20052;-69
2021/07/07 10:16:55;;;;;;;1.98;1.88;;;;;;;25.52;45.87;101375.78;10500890;28;20091;-68
2021/07/07 10:21:55;;;;;;;4.50;1.67;;;;;;;26.06;46.29;101247.19;10491355;28;20480;-70
2021/07/07 10:26:58;;;;;;;3.22;1.63;;;;;;;27.71;42.44;101410.84;10417178;28;20429;-68
2021/07/07 10:32:00;;;;;;;5.40;2.05;;;;;;;27.92;41.00;101415.03;10417900;28;20144;-70
2021/07/07 10:37:00;;;;;;;3.03;1.90;;;;;;;27.00;42.93;101413.41;10418083;28;20068;-70
2021/07/07 10:42:03;;;;;;;6.72;2.72;;;;;;;26.36;42.43;101420.16;10419433;28;20056;-68
2021/07/07 10:47:11;;;;;;;1.55;1.45;;;;;;;26.33;44.28;101409.63;10401445;28;20092;-66
2021/07/07 10:52:17;;;;;;;2.30;2.13;;;;;;;26.72;42.16;101417.88;10419095;28;20034;-67
2021/07/07 10:57:24;;;;;;;2.90;2.30;;;;;;;24.59;43.92;101079.00;10417102;28;20120;-68
2021/07/07 11:02:25;;;;;;;3.30;2.88;;;;;;;27.56;43.11;101439.72;10419042;28;20029;-68
2021/07/07 11:07:31;;;;;;;3.42;2.53;;;;;;;28.83;42.09;101439.66;10418442;28;20036;-67
2021/07/07 11:12:35;;;;;;;1.63;1.63;;;;;;;27.78;40.52;101353.72;10418474;28;20034;-66
2021/07/07 11:17:38;;;;;;;4.53;2.45;;;;;;;28.32;41.08;101428.56;10417661;28;20053;-67
2021/07/07 11:22:41;;;;;;;2.85;2.17;;;;;;;28.04;42.39;101457.13;10416473;28;20029;-68
2021/07/07 11:27:42;;;;;;;5.20;2.88;;;;;;;28.59;40.19;101462.13;10414616;28;20432;-68
2021/07/07 11:32:46;;;;;;;3.28;2.90;;;;;;;28.16;41.48;101375.09;10416866;28;20048;-68
2021/07/07 11:37:52;;;;;;;10.23;3.15;;;;;;;28.46;40.52;101469.31;10416838;28;20428;-70
2021/07/07 11:42:55;;;;;;;3.37;3.07;;;;;;;27.23;42.30;101488.81;10398633;28;20176;-70
2021/07/07 11:48:01;;;;;;;2.13;1.92;;;;;;;26.36;42.45;101478.47;10417028;28;20037;-69
2021/07/07 11:53:05;;;;;;;3.53;2.40;;;;;;;25.54;43.92;101476.16;10419032;28;20038;-69
2021/07/07 11:58:06;;;;;;;3.97;2.67;;;;;;;25.86;43.48;101475.75;10399224;28;20504;-69
2021/07/07 12:03:06;;;;;;;2.40;2.28;;;;;;;25.69;50.12;101487.19;10417865;28;20128;-68
2021/07/07 12:08:24;;;;;;;15.52;3.70;;;;;;;24.96;46.18;101448.88;10418844;28;20116;-69
2021/07/07 12:13:28;;;;;;;2.75;2.55;;;;;;;25.44;45.73;101510.31;10418000;28;20117;-69
2021/07/07 12:18:28;;;;;;;3.83;3.08;;;;;;;25.92;44.57;101498.75;10415944;28;20056;-68
2021/07/07 12:23:29;;;;;;;5.65;4.05;;;;;;;26.15;44.36;101506.38;10413776;28;20044;-69
2021/07/07 12:28:29;;;;;;;4.40;3.38;;;;;;;26.91;42.67;101512.47;10414911;28;20033;-70
2021/07/07 12:33:30;;;;;;;9.63;3.97;;;;;;;28.17;41.07;101504.84;10416802;28;20043;-71
2021/07/07 12:38:31;;;;;;;3.50;2.50;;;;;;;29.31;39.60;101500.66;10473840;28;20067;-71
2021/07/07 12:43:41;;;;;;;13.52;4.10;;;;;;;30.31;40.07;101486.78;10495781;28;20044;-72
2021/07/07 12:48:54;;;;;;;4.30;2.35;;;;;;;29.60;41.60;101524.63;10479500;28;20053;-71
2021/07/07 12:53:56;;;;;;;9.35;3.45;;;;;;;30.20;41.12;101499.34;10441776;28;20036;-72
2021/07/07 12:59:12;;;;;;;2.97;2.70;;;;;;;28.72;41.17;101507.88;10421792;28;20052;-71
2021/07/07 13:04:20;;;;;;;6.43;3.58;;;;;;;30.02;39.53;101511.47;10456139;28;20033;-71
2021/07/07 13:09:21;;;;;;;3.35;2.97;;;;;;;30.59;40.60;101512.59;10452308;28;20033;-69
2021/07/07 13:14:23;;;;;;;4.45;3.30;;;;;;;30.50;38.81;101496.91;10435935;28;20037;-69
2021/07/07 13:19:27;;;;;;;11.15;2.78;;;;;;;30.69;36.65;101517.09;10454351;28;20037;-68
2021/07/07 13:24:38;;;;;;;8.68;3.08;;;;;;;30.69;37.37;101516.28;10455757;28;20056;-70
2021/07/07 13:29:51;;;;;;;8.38;3.03;;;;;;;30.29;35.63;101391.25;10436714;28;20554;-69
2021/07/07 13:34:56;;;;;;;4.03;2.17;;;;;;;31.08;36.86;101509.97;10462214;28;20082;-73
2021/07/07 13:39:58;;;;;;;3.17;2.78;;;;;;;31.41;35.54;101488.06;10461488;28;20550;-69
2021/07/07 13:44:58;;;;;;;3.63;3.00;;;;;;;31.64;36.59;101521.56;10444829;28;20095;-69
2021/07/07 13:49:59;;;;;;;2.40;2.30;;;;;;;31.56;35.61;101439.22;10461069;28;20049;-69
2021/07/07 13:55:00;;;;;;;3.47;2.47;;;;;;;31.48;35.39;101501.59;10462110;28;20063;-73
2021/07/07 14:00:00;;;;;;;2.53;2.33;;;;;;;32.11;33.80;101477.81;10459864;28;20032;-71
2021/07/07 14:05:01;;;;;;;1.45;1.45;;;;;;;31.64;36.07;101527.16;10439946;28;20088;-69
2021/07/07 14:10:01;;;;;;;3.10;2.30;;;;;;;30.89;36.28;101538.19;10421879;28;20033;-71
2021/07/07 14:15:02;;;;;;;5.82;3.10;;;;;;;31.41;34.65;101507.66;10421013;28;20045;-70
2021/07/07 14:20:04;;;;;;;5.22;2.72;;;;;;;32.28;35.10;101537.81;10402615;28;20521;-70
2021/07/07 14:25:04;;;;;;;2.92;2.72;;;;;;;32.34;32.28;101542.13;10362802;28;20049;-72
2021/07/07 14:30:08;;;;;;;2.15;1.80;;;;;;;32.09;33.34;101526.94;10391904;28;20121;-70
2021/07/07 14:35:09;;;;;;;2.60;2.38;;;;;;;32.25;34.97;101544.91;10419030;28;20030;-69
2021/07/07 14:40:10;;;;;;;2.58;2.38;;;;;;;31.35;36.23;101524.94;10401540;28;20104;-69
2021/07/07 14:45:10;;;;;;;3.83;2.13;;;;;;;31.08;35.30;101551.94;10401052;28;20135;-70
2021/07/07 14:50:11;;;;;;;3.22;1.98;;;;;;;31.65;35.14;101548.41;10419220;28;20037;-70
2021/07/07 14:55:12;;;;;;;5.40;2.95;;;;;;;31.21;34.89;101553.00;10418579;28;20144;-74
2021/07/07 15:00:12;;;;;;;2.85;2.15;;;;;;;31.25;36.01;101570.78;10418496;28;20037;-69
2021/07/07 15:05:13;;;;;;;2.25;2.05;;;;;;;31.00;34.24;101549.91;10417003;28;20041;-69
2021/07/07 15:10:13;;;;;;;2.75;2.38;;;;;;;30.82;36.82;101521.00;10418681;28;20447;-69
2021/07/07 15:15:14;;;;;;;2.00;1.90;;;;;;;30.78;35.05;101559.16;10417262;28;20033;-70
2021/07/07 15:20:15;;;;;;;4.80;2.70;;;;;;;30.05;37.47;101544.34;10416876;28;20087;-69
2021/07/07 15:25:15;;;;;;;3.17;2.22;;;;;;;30.61;35.80;101553.41;10415802;28;20025;-69
2021/07/07 15:30:19;;;;;;;8.38;3.20;;;;;;;30.11;37.13;101551.47;10417991;28;20120;-69
2021/07/07 15:35:19;;;;;;;3.92;2.53;;;;;;;30.19;35.44;101556.34;10400300;28;20345;-69
2021/07/07 15:40:20;;;;;;;5.47;2.80;;;;;;;29.59;35.40;101461.59;10382931;28;20064;-70
2021/07/07 15:45:20;;;;;;;6.07;2.20;;;;;;;30.22;37.11;101564.13;10416393;28;20559;-69
2021/07/07 15:50:20;;;;;;;3.22;2.92;;;;;;;30.00;36.26;101541.69;10416817;28;20038;-69
2021/07/07 15:55:21;;;;;;;4.55;2.28;;;;;;;30.47;34.64;101519.91;10413931;28;20034;-69
2021/07/07 16:00:21;;;;;;;4.57;2.15;;;;;;;31.08;34.32;101568.72;10398737;28;20036;-70
2021/07/07 16:05:22;;;;;;;5.20;3.88;;;;;;;30.78;34.76;101553.56;10415269;28;20068;-69
2021/07/07 16:10:22;;;;;;;4.45;3.08;;;;;;;30.65;34.79;101563.63;10398560;28;20162;-68
2021/07/07 16:15:23;;;;;;;7.00;2.55;;;;;;;30.32;35.96;101577.00;10398969;28;20112;-69
2021/07/07 16:20:23;;;;;;;3.47;2.53;;;;;;;27.73;37.00;101345.44;10399211;28;20041;-70
2021/07/07 16:25:26;;;;;;;18.92;2.88;;;;;;;28.80;37.45;101585.22;10397637;28;20033;-69
2021/07/07 16:30:26;;;;;;;6.28;2.78;;;;;;;28.28;38.14;101575.97;10415875;28;20528;-70
2021/07/07 16:35:27;;;;;;;2.58;2.35;;;;;;;28.21;38.35;101589.47;10397363;28;20116;-69
2021/07/07 16:40:27;;;;;;;3.75;2.60;;;;;;;27.50;39.37;101553.00;10415320;28;20068;-69
2021/07/07 16:45:28;;;;;;;7.07;3.85;;;;;;;27.44;38.17;101598.72;10414825;28;20041;-70
2021/07/07 16:50:30;;;;;;;2.13;1.90;;;;;;;26.97;39.93;101589.13;10413915;28;20095;-69
2021/07/07 16:55:31;;;;;;;2.90;2.05;;;;;;;25.86;39.00;101491.56;10414703;28;20448;-69
2021/07/07 17:00:34;;;;;;;5.15;3.00;;;;;;;26.18;39.51;101604.91;10413224;28;20065;-69
2021/07/07 17:05:35;;;;;;;8.80;3.13;;;;;;;25.68;40.73;101568.72;10413279;28;20034;-70
2021/07/07 17:10:35;;;;;;;10.98;3.08;;;;;;;25.67;40.49;101594.00;10423438;28;20049;-69
2021/07/07 17:15:36;;;;;;;5.93;2.85;;;;;;;25.69;40.59;101614.78;10421592;28;20037;-70
2021/07/07 17:20:36;;;;;;;5.32;3.70;;;;;;;25.00;40.52;101529.50;10423600;28;20045;-70
2021/07/07 17:25:37;;;;;;;3.83;2.47;;;;;;;25.28;40.36;101614.03;10421995;28;20057;-69
2021/07/07 17:30:37;;;;;;;4.05;3.17;;;;;;;25.21;41.47;101608.78;10421277;28;20116;-69
2021/07/07 17:35:38;;;;;;;5.65;3.00;;;;;;;24.46;40.65;101547.50;10421703;28;20054;-70
2021/07/07 17:40:38;;;;;;;14.57;2.97;;;;;;;24.85;40.74;101634.78;10422291;28;20142;-70
2021/07/07 17:45:39;;;;;;;5.50;3.25;;;;;;;24.75;40.79;101632.84;10421050;28;20120;-70
2021/07/07 17:50:39;;;;;;;6.45;3.30;;;;;;;24.59;41.39;101630.03;10421848;28;20479;-70
2021/07/07 17:55:40;;;;;;;8.70;3.15;;;;;;;24.21;41.73;101628.53;10420973;28;20095;-70
2021/07/07 18:00:41;;;;;;;5.68;2.92;;;;;;;22.73;42.19;101356.91;10403889;28;20067;-70
2021/07/07 18:05:41;;;;;;;8.63;2.50;;;;;;;23.87;42.54;101543.19;10421172;28;20084;-69
2021/07/07 18:10:42;;;;;;;3.05;2.78;;;;;;;22.76;41.08;101364.66;10420167;28;20068;-70
2021/07/07 18:15:43;;;;;;;3.92;3.03;;;;;;;24.20;41.42;101678.63;10420624;28;20358;-69
2021/07/07 18:20:44;;;;;;;8.85;3.15;;;;;;;24.24;41.46;101652.06;10401687;28;20506;-69
2021/07/07 18:25:45;;;;;;;9.48;3.25;;;;;;;24.36;42.04;101670.09;10421120;28;20056;-70
2021/07/07 18:30:49;;;;;;;2.58;2.13;;;;;;;24.05;41.97;101649.75;10420354;28;20061;-69
2021/07/07 18:35:50;;;;;;;4.28;2.80;;;;;;;24.09;42.23;101689.66;10420056;28;20033;-70
2021/07/07 18:40:50;;;;;;;8.48;2.53;;;;;;;23.97;41.87;101675.19;10401812;28;20155;-69
2021/07/07 18:45:51;;;;;;;5.22;2.67;;;;;;;22.25;41.92;101408.47;10419556;28;20056;-70
2021/07/07 18:50:51;;;;;;;3.15;2.88;;;;;;;23.98;43.16;101712.00;10401338;28;20044;-70
2021/07/07 18:55:51;;;;;;;12.30;2.88;;;;;;;23.93;43.82;101698.13;10402373;28;20040;-69
2021/07/07 19:00:52;;;;;;;4.57;2.33;;;;;;;23.83;42.93;101688.66;10418809;28;20040;-69
2021/07/07 19:05:52;;;;;;;2.33;2.13;;;;;;;23.07;42.93;101628.13;10418375;28;20494;-70
2021/07/07 19:10:53;;;;;;;7.85;2.15;;;;;;;23.24;43.54;101699.81;10418890;28;20029;-70
2021/07/07 19:15:54;;;;;;;4.93;2.35;;;;;;;23.05;43.88;101693.00;10417086;28;20111;-69
2021/07/07 19:20:55;;;;;;;3.45;2.65;;;;;;;22.87;44.14;101678.44;10400421;28;20037;-67
2021/07/07 19:25:56;;;;;;;2.30;2.10;;;;;;;22.87;44.01;101681.19;10416491;28;20457;-67
2021/07/07 19:30:56;;;;;;;2.97;2.50;;;;;;;22.85;44.41;101705.50;10416022;28;20038;-67
2021/07/07 19:35:57;;;;;;;4.25;2.63;;;;;;;22.29;45.26;101691.88;10416571;28;20091;-69
2021/07/07 19:40:57;;;;;;;4.07;2.67;;;;;;;22.37;45.47;101715.44;10415867;28;20049;-68
2021/07/07 19:45:58;;;;;;;6.10;2.42;;;;;;;22.15;46.24;101720.06;10417162;28;20048;-68
2021/07/07 19:50:59;;;;;;;2.85;2.60;;;;;;;22.02;46.20;101727.63;10416675;28;20401;-68
2021/07/07 19:55:59;;;;;;;3.17;2.70;;;;;;;21.86;46.41;101734.00;10416403;28;20046;-67
2021/07/07 20:00:59;;;;;;;2.10;1.90;;;;;;;21.70;46.63;101743.13;10415496;28;20048;-67
2021/07/07 20:06:00;;;;;;;2.88;2.67;;;;;;;21.54;47.00;101751.16;10415386;28;20046;-67
2021/07/07 20:11:03;;;;;;;4.32;2.38;;;;;;;21.28;47.76;101743.47;10398910;28;20025;-67
2021/07/07 20:16:04;;;;;;;5.43;2.80;;;;;;;21.12;47.98;101751.50;10416072;28;20416;-68
2021/07/07 20:21:04;;;;;;;6.05;2.63;;;;;;;21.06;48.46;101765.41;10414191;28;20033;-68
2021/07/07 20:26:04;;;;;;;4.32;2.78;;;;;;;19.73;50.17;101628.69;10415641;28;20041;-67
2021/07/07 20:31:05;;;;;;;5.50;3.65;;;;;;;19.91;50.74;101659.81;10416080;28;20037;-68
2021/07/07 20:36:06;;;;;;;3.30;3.10;;;;;;;20.69;50.36;101792.47;10415287;28;20055;-69
2021/07/07 20:41:06;;;;;;;4.38;3.08;;;;;;;20.52;50.49;101795.97;10380903;28;20051;-68
2021/07/07 20:46:06;;;;;;;13.68;3.03;;;;;;;20.51;50.29;101783.28;10415752;28;20116;-69
2021/07/07 20:51:07;;;;;;;6.32;2.42;;;;;;;20.44;50.11;101790.81;10415294;28;20125;-68
2021/07/07 20:56:07;;;;;;;6.25;2.60;;;;;;;20.34;50.33;101821.69;10413089;28;20488;-67
2021/07/07 21:01:08;;;;;;;12.25;3.03;;;;;;;20.26;50.39;101789.06;10414874;28;20473;-67
2021/07/07 21:06:08;;;;;;;6.10;2.65;;;;;;;19.32;51.64;101680.97;10397117;28;20496;-67
2021/07/07 21:11:08;;;;;;;12.25;3.75;;;;;;;20.02;51.54;101796.44;10396921;28;20045;-68
2021/07/07 21:16:09;;;;;;;8.05;2.83;;;;;;;19.45;51.33;101711.78;10413092;28;20111;-68
2021/07/07 21:21:09;;;;;;;4.15;2.75;;;;;;;19.84;51.84;101791.88;10414187;28;20414;-70
2021/07/07 21:26:10;;;;;;;4.50;3.38;;;;;;;19.72;52.45;101797.41;10407196;28;20043;-68
2021/07/07 21:31:10;;;;;;;5.82;3.00;;;;;;;19.69;52.55;101802.53;10411270;28;20426;-69
2021/07/07 21:36:10;;;;;;;7.00;3.00;;;;;;;19.66;52.14;101809.34;10412694;28;20042;-69
2021/07/07 21:41:11;;;;;;;4.55;3.30;;;;;;;19.34;51.89;101763.97;10413609;28;20112;-69
2021/07/07 21:46:12;;;;;;;3.03;2.83;;;;;;;19.48;52.40;101814.88;10405133;28;20112;-67
2021/07/07 21:51:12;;;;;;;4.95;3.25;;;;;;;19.38;52.07;101812.69;10379864;28;20044;-69
2021/07/07 21:56:13;;;;;;;7.47;4.03;;;;;;;19.31;52.76;101811.13;10418479;28;20535;-68
2021/07/07 22:01:13;;;;;;;4.00;3.63;;;;;;;19.22;52.96;101805.09;10419854;28;20128;-67
2021/07/07 22:06:13;;;;;;;4.13;3.40;;;;;;;19.20;53.26;101818.22;10419680;28;20116;-68
2021/07/07 22:11:14;;;;;;;3.20;2.90;;;;;;;18.74;54.14;101773.88;10421031;28;20084;-65
2021/07/07 22:16:14;;;;;;;6.13;3.83;;;;;;;18.85;53.98;101831.78;10420446;28;20037;-64
2021/07/07 22:21:14;;;;;;;4.53;3.28;;;;;;;18.76;54.79;101834.84;10419325;28;20038;-67
2021/07/07 22:26:15;;;;;;;3.80;3.50;;;;;;;18.40;54.57;101775.28;10419591;28;20457;-67
2021/07/07 22:31:15;;;;;;;4.15;3.75;;;;;;;18.67;54.79;101832.63;10420597;28;20091;-68
2021/07/07 22:36:16;;;;;;;4.18;3.85;;;;;;;18.59;54.53;101839.22;10420261;28;20029;-68
2021/07/07 22:41:16;;;;;;;3.08;2.78;;;;;;;18.45;54.46;101833.06;10419914;28;20057;-68
2021/07/07 22:46:16;;;;;;;6.30;3.90;;;;;;;18.38;54.49;101831.44;10418793;28;20477;-68
2021/07/07 22:51:17;;;;;;;8.10;4.72;;;;;;;18.49;54.81;101860.84;10418971;28;20111;-67
2021/07/07 22:56:18;;;;;;;8.07;4.43;;;;;;;18.33;55.76;101835.69;10417579;28;20069;-67
2021/07/07 23:01:18;;;;;;;3.60;3.08;;;;;;;18.73;55.09;101862.75;10418158;28;20037;-67
2021/07/07 23:06:19;;;;;;;7.70;3.40;;;;;;;18.91;55.33;101861.06;10418883;28;20068;-67